sensor_id;sensor_type;location;lat;lon;timestamp;temperature;humidity
25933;DHT22;13731;51.166;4.474;2023-01-28T00:00:35;5.10;99.90
25933;DHT22;13731;51.166;4.474;2023-01-28T00:03:01;5.10;99.90
25933;DHT22;13731;51.166;4.474;2023-01-28T00:05:27;5.10;99.90
25933;DHT22;13731;51.166;4.474;2023-01-28T00:07:54;5.20;99.90
25933;DHT22;13731;51.166;4.474;2023-01-28T00:10:21;5.20;99.90
25933;DHT22;13731;51.166;4.474;2023-01-28T00:12:47;5.00;99.90
25933;DHT22;13731;51.166;4.474;2023-01-28T00:15:15;4.80;1.00
25933;DHT22;13731;51.166;4.474;2023-01-28T00:17:41;5.00;41.00
25933;DHT22;13731;51.166;4.474;2023-01-28T00:20:07;5.00;99.90
25933;DHT22;13731;51.166;4.474;2023-01-28T00:22:33;4.90;99.90
25933;DHT22;13731;51.166;4.474;2023-01-28T00:24:59;5.10;99.90
25933;DHT22;13731;51.166;4.474;2023-01-28T00:27:25;5.20;96.90
25933;DHT22;13731;51.166;4.474;2023-01-28T00:29:51;5.40;99.90
25933;DHT22;13731;51.166;4.474;2023-01-28T00:32:18;5.40;99.90
25933;DHT22;13731;51.166;4.474;2023-01-28T00:34:44;5.40;99.90
25933;DHT22;13731;51.166;4.474;2023-01-28T00:37:10;5.30;1.00
25933;DHT22;13731;51.166;4.474;2023-01-28T00:39:35;5.20;1.00
25933;DHT22;13731;51.166;4.474;2023-01-28T00:42:01;5.20;99.90
25933;DHT22;13731;51.166;4.474;2023-01-28T00:44:27;5.10;1.00
25933;DHT22;13731;51.166;4.474;2023-01-28T00:46:53;5.20;1.00
25933;DHT22;13731;51.166;4.474;2023-01-28T00:49:21;5.20;1.00
25933;DHT22;13731;51.166;4.474;2023-01-28T00:51:47;5.20;99.90
25933;DHT22;13731;51.166;4.474;2023-01-28T00:54:15;4.90;1.00
25933;DHT22;13731;51.166;4.474;2023-01-28T00:56:41;5.00;1.00
25933;DHT22;13731;51.166;4.474;2023-01-28T00:59:06;5.10;1.00
25933;DHT22;13731;51.166;4.474;2023-01-28T01:01:33;5.20;99.90
25933;DHT22;13731;51.166;4.474;2023-01-28T01:03:59;4.90;1.00
25933;DHT22;13731;51.166;4.474;2023-01-28T01:06:31;4.80;99.90
25933;DHT22;13731;51.166;4.474;2023-01-28T01:08:58;4.90;99.90
25933;DHT22;13731;51.166;4.474;2023-01-28T01:11:24;5.20;1.00
25933;DHT22;13731;51.166;4.474;2023-01-28T01:13:55;5.20;1.00
25933;DHT22;13731;51.166;4.474;2023-01-28T01:16:25;5.20;99.90
25933;DHT22;13731;51.166;4.474;2023-01-28T01:18:53;5.00;1.00
25933;DHT22;13731;51.166;4.474;2023-01-28T01:21:21;4.90;1.00
25933;DHT22;13731;51.166;4.474;2023-01-28T01:23:48;5.00;1.00
25933;DHT22;13731;51.166;4.474;2023-01-28T01:26:14;5.00;1.00
25933;DHT22;13731;51.166;4.474;2023-01-28T01:28:41;5.00;1.00
25933;DHT22;13731;51.166;4.474;2023-01-28T01:31:16;5.10;1.00
25933;DHT22;13731;51.166;4.474;2023-01-28T01:33:44;5.00;1.00
25933;DHT22;13731;51.166;4.474;2023-01-28T01:36:12;5.00;1.00
25933;DHT22;13731;51.166;4.474;2023-01-28T01:38:38;4.90;1.00
25933;DHT22;13731;51.166;4.474;2023-01-28T01:41:06;4.90;97.30
25933;DHT22;13731;51.166;4.474;2023-01-28T01:46:14;5.00;31.20
25933;DHT22;13731;51.166;4.474;2023-01-28T01:48:43;4.90;61.00
25933;DHT22;13731;51.166;4.474;2023-01-28T01:51:13;4.90;99.90
25933;DHT22;13731;51.166;4.474;2023-01-28T01:53:43;5.00;1.00
25933;DHT22;13731;51.166;4.474;2023-01-28T01:56:10;4.90;99.90
25933;DHT22;13731;51.166;4.474;2023-01-28T01:58:41;4.90;99.90
25933;DHT22;13731;51.166;4.474;2023-01-28T02:01:09;4.80;99.90
25933;DHT22;13731;51.166;4.474;2023-01-28T02:03:43;4.60;99.90
25933;DHT22;13731;51.166;4.474;2023-01-28T02:06:11;4.80;30.70
25933;DHT22;13731;51.166;4.474;2023-01-28T02:08:39;4.70;99.90
25933;DHT22;13731;51.166;4.474;2023-01-28T02:11:07;4.80;1.00
25933;DHT22;13731;51.166;4.474;2023-01-28T02:13:48;4.50;12.30
25933;DHT22;13731;51.166;4.474;2023-01-28T02:16:15;4.40;99.90
25933;DHT22;13731;51.166;4.474;2023-01-28T02:18:43;4.60;99.90
25933;DHT22;13731;51.166;4.474;2023-01-28T02:21:51;4.60;99.90
25933;DHT22;13731;51.166;4.474;2023-01-28T02:24:50;4.70;99.90
25933;DHT22;13731;51.166;4.474;2023-01-28T02:32:56;4.80;1.00
25933;DHT22;13731;51.166;4.474;2023-01-28T02:35:47;4.80;99.90
25933;DHT22;13731;51.166;4.474;2023-01-28T02:38:27;4.90;1.00
25933;DHT22;13731;51.166;4.474;2023-01-28T02:41:04;5.20;99.90
25933;DHT22;13731;51.166;4.474;2023-01-28T02:46:03;5.00;1.00
25933;DHT22;13731;51.166;4.474;2023-01-28T02:48:53;5.00;1.00
25933;DHT22;13731;51.166;4.474;2023-01-28T02:56:59;4.80;1.00
25933;DHT22;13731;51.166;4.474;2023-01-28T02:59:41;4.60;99.90
25933;DHT22;13731;51.166;4.474;2023-01-28T03:02:34;4.80;99.90
25933;DHT22;13731;51.166;4.474;2023-01-28T03:05:06;4.80;99.90
25933;DHT22;13731;51.166;4.474;2023-01-28T03:07:37;4.60;99.90
25933;DHT22;13731;51.166;4.474;2023-01-28T03:10:07;4.60;99.90
25933;DHT22;13731;51.166;4.474;2023-01-28T03:12:36;4.40;99.90
25933;DHT22;13731;51.166;4.474;2023-01-28T03:15:28;4.40;99.90
25933;DHT22;13731;51.166;4.474;2023-01-28T03:18:26;4.40;1.00
25933;DHT22;13731;51.166;4.474;2023-01-28T03:21:28;4.80;1.00
25933;DHT22;13731;51.166;4.474;2023-01-28T03:24:16;4.70;1.00
25933;DHT22;13731;51.166;4.474;2023-01-28T03:30:08;4.40;99.90
25933;DHT22;13731;51.166;4.474;2023-01-28T03:32:55;4.50;1.00
25933;DHT22;13731;51.166;4.474;2023-01-28T03:35:41;4.60;99.90
25933;DHT22;13731;51.166;4.474;2023-01-28T03:38:27;4.20;1.00
25933;DHT22;13731;51.166;4.474;2023-01-28T03:41:09;4.10;1.00
25933;DHT22;13731;51.166;4.474;2023-01-28T03:43:36;4.10;99.90
25933;DHT22;13731;51.166;4.474;2023-01-28T03:46:03;4.10;1.00
25933;DHT22;13731;51.166;4.474;2023-01-28T03:48:31;4.20;1.00
25933;DHT22;13731;51.166;4.474;2023-01-28T03:51:00;4.40;1.00
25933;DHT22;13731;51.166;4.474;2023-01-28T03:53:27;4.50;99.90
25933;DHT22;13731;51.166;4.474;2023-01-28T03:55:55;4.50;7.90
25933;DHT22;13731;51.166;4.474;2023-01-28T03:58:22;4.50;1.00
25933;DHT22;13731;51.166;4.474;2023-01-28T04:01:05;4.30;45.10
25933;DHT22;13731;51.166;4.474;2023-01-28T04:03:31;4.20;99.90
25933;DHT22;13731;51.166;4.474;2023-01-28T04:06:02;4.20;99.90
25933;DHT22;13731;51.166;4.474;2023-01-28T04:09:01;4.20;99.90
25933;DHT22;13731;51.166;4.474;2023-01-28T04:11:37;4.00;99.90
25933;DHT22;13731;51.166;4.474;2023-01-28T04:14:04;4.10;99.90
25933;DHT22;13731;51.166;4.474;2023-01-28T04:16:44;4.30;99.90
25933;DHT22;13731;51.166;4.474;2023-01-28T04:19:10;4.20;50.40
25933;DHT22;13731;51.166;4.474;2023-01-28T04:21:40;4.20;99.90
25933;DHT22;13731;51.166;4.474;2023-01-28T04:24:07;4.10;99.90
25933;DHT22;13731;51.166;4.474;2023-01-28T04:26:33;4.20;99.90
25933;DHT22;13731;51.166;4.474;2023-01-28T04:29:00;4.00;99.90
25933;DHT22;13731;51.166;4.474;2023-01-28T04:31:26;4.20;99.90
25933;DHT22;13731;51.166;4.474;2023-01-28T04:34:10;4.40;99.90
25933;DHT22;13731;51.166;4.474;2023-01-28T04:36:44;4.40;99.90
25933;DHT22;13731;51.166;4.474;2023-01-28T04:39:40;4.50;99.90
25933;DHT22;13731;51.166;4.474;2023-01-28T04:42:14;4.40;1.00
25933;DHT22;13731;51.166;4.474;2023-01-28T04:44:55;4.70;1.00
25933;DHT22;13731;51.166;4.474;2023-01-28T04:47:53;4.80;1.00
25933;DHT22;13731;51.166;4.474;2023-01-28T04:50:31;4.50;1.00
25933;DHT22;13731;51.166;4.474;2023-01-28T04:53:16;4.30;99.90
25933;DHT22;13731;51.166;4.474;2023-01-28T04:56:04;4.10;99.90
25933;DHT22;13731;51.166;4.474;2023-01-28T04:58:33;4.10;1.00
25933;DHT22;13731;51.166;4.474;2023-01-28T05:01:03;4.30;1.00
25933;DHT22;13731;51.166;4.474;2023-01-28T05:03:30;4.60;99.90
25933;DHT22;13731;51.166;4.474;2023-01-28T05:05:56;4.60;1.00
25933;DHT22;13731;51.166;4.474;2023-01-28T05:08:35;4.30;61.90
25933;DHT22;13731;51.166;4.474;2023-01-28T05:11:02;4.10;1.00
25933;DHT22;13731;51.166;4.474;2023-01-28T05:13:28;4.20;1.00
25933;DHT22;13731;51.166;4.474;2023-01-28T05:15:54;4.20;1.00
25933;DHT22;13731;51.166;4.474;2023-01-28T05:18:20;4.30;1.00
25933;DHT22;13731;51.166;4.474;2023-01-28T05:20:59;4.30;1.00
25933;DHT22;13731;51.166;4.474;2023-01-28T05:23:25;4.40;1.00
25933;DHT22;13731;51.166;4.474;2023-01-28T05:25:54;4.50;99.90
25933;DHT22;13731;51.166;4.474;2023-01-28T05:28:21;4.50;99.90
25933;DHT22;13731;51.166;4.474;2023-01-28T05:30:47;4.50;99.90
25933;DHT22;13731;51.166;4.474;2023-01-28T05:33:13;4.70;1.00
25933;DHT22;13731;51.166;4.474;2023-01-28T05:35:39;4.70;1.00
25933;DHT22;13731;51.166;4.474;2023-01-28T05:38:05;4.70;1.00
25933;DHT22;13731;51.166;4.474;2023-01-28T05:40:31;4.60;1.00
25933;DHT22;13731;51.166;4.474;2023-01-28T05:42:57;4.60;3.00
25933;DHT22;13731;51.166;4.474;2023-01-28T05:45:39;4.60;99.90
25933;DHT22;13731;51.166;4.474;2023-01-28T05:48:09;4.60;45.40
25933;DHT22;13731;51.166;4.474;2023-01-28T05:50:56;4.60;1.00
25933;DHT22;13731;51.166;4.474;2023-01-28T05:53:42;4.40;99.90
25933;DHT22;13731;51.166;4.474;2023-01-28T05:56:08;4.10;99.90
25933;DHT22;13731;51.166;4.474;2023-01-28T05:58:35;4.00;1.00
25933;DHT22;13731;51.166;4.474;2023-01-28T06:01:02;3.80;99.90
25933;DHT22;13731;51.166;4.474;2023-01-28T06:03:37;3.90;99.90
25933;DHT22;13731;51.166;4.474;2023-01-28T06:06:03;3.90;1.00
25933;DHT22;13731;51.166;4.474;2023-01-28T06:08:30;3.90;1.00
25933;DHT22;13731;51.166;4.474;2023-01-28T06:10:57;3.90;1.00
25933;DHT22;13731;51.166;4.474;2023-01-28T06:13:24;4.00;1.00
25933;DHT22;13731;51.166;4.474;2023-01-28T06:16:08;4.00;1.00
25933;DHT22;13731;51.166;4.474;2023-01-28T06:18:58;3.90;67.50
25933;DHT22;13731;51.166;4.474;2023-01-28T06:21:24;4.00;1.00
25933;DHT22;13731;51.166;4.474;2023-01-28T06:23:50;3.90;46.10
25933;DHT22;13731;51.166;4.474;2023-01-28T06:26:16;4.00;1.00
25933;DHT22;13731;51.166;4.474;2023-01-28T06:28:44;4.10;1.00
25933;DHT22;13731;51.166;4.474;2023-01-28T06:31:11;4.10;1.00
25933;DHT22;13731;51.166;4.474;2023-01-28T06:33:36;4.40;99.90
25933;DHT22;13731;51.166;4.474;2023-01-28T06:36:03;4.40;99.90
25933;DHT22;13731;51.166;4.474;2023-01-28T06:38:29;4.20;99.90
25933;DHT22;13731;51.166;4.474;2023-01-28T06:40:55;4.30;1.00
25933;DHT22;13731;51.166;4.474;2023-01-28T06:43:23;4.30;1.00
25933;DHT22;13731;51.166;4.474;2023-01-28T06:45:52;4.40;1.00
25933;DHT22;13731;51.166;4.474;2023-01-28T06:48:19;4.60;99.90
25933;DHT22;13731;51.166;4.474;2023-01-28T06:50:48;4.30;99.90
25933;DHT22;13731;51.166;4.474;2023-01-28T06:53:15;4.00;12.60
25933;DHT22;13731;51.166;4.474;2023-01-28T06:55:41;4.20;1.00
25933;DHT22;13731;51.166;4.474;2023-01-28T06:58:06;4.20;1.00
25933;DHT22;13731;51.166;4.474;2023-01-28T07:00:32;4.30;1.00
25933;DHT22;13731;51.166;4.474;2023-01-28T07:02:58;4.20;99.90
25933;DHT22;13731;51.166;4.474;2023-01-28T07:05:25;4.20;1.00
25933;DHT22;13731;51.166;4.474;2023-01-28T07:07:51;4.20;99.90
25933;DHT22;13731;51.166;4.474;2023-01-28T07:10:17;4.30;99.90
25933;DHT22;13731;51.166;4.474;2023-01-28T07:12:43;4.30;50.30
25933;DHT22;13731;51.166;4.474;2023-01-28T07:15:09;4.20;99.90
25933;DHT22;13731;51.166;4.474;2023-01-28T07:17:42;4.10;99.90
25933;DHT22;13731;51.166;4.474;2023-01-28T07:20:10;4.00;99.90
25933;DHT22;13731;51.166;4.474;2023-01-28T07:22:37;3.90;1.00
25933;DHT22;13731;51.166;4.474;2023-01-28T07:25:05;3.80;1.00
25933;DHT22;13731;51.166;4.474;2023-01-28T07:27:31;3.70;1.00
25933;DHT22;13731;51.166;4.474;2023-01-28T07:29:57;3.70;1.00
25933;DHT22;13731;51.166;4.474;2023-01-28T07:32:23;3.80;1.00
25933;DHT22;13731;51.166;4.474;2023-01-28T07:34:52;3.80;1.00
25933;DHT22;13731;51.166;4.474;2023-01-28T07:37:18;4.10;99.90
25933;DHT22;13731;51.166;4.474;2023-01-28T07:39:44;4.40;99.90
25933;DHT22;13731;51.166;4.474;2023-01-28T07:42:10;4.50;1.00
25933;DHT22;13731;51.166;4.474;2023-01-28T07:44:38;4.40;1.00
25933;DHT22;13731;51.166;4.474;2023-01-28T07:47:05;4.20;9.40
25933;DHT22;13731;51.166;4.474;2023-01-28T07:49:32;4.10;99.90
25933;DHT22;13731;51.166;4.474;2023-01-28T07:51:58;4.10;99.90
25933;DHT22;13731;51.166;4.474;2023-01-28T07:54:25;4.10;99.90
25933;DHT22;13731;51.166;4.474;2023-01-28T07:56:51;4.30;99.90
25933;DHT22;13731;51.166;4.474;2023-01-28T07:59:17;4.50;99.90
25933;DHT22;13731;51.166;4.474;2023-01-28T08:01:43;4.70;88.10
25933;DHT22;13731;51.166;4.474;2023-01-28T08:04:09;4.70;1.00
25933;DHT22;13731;51.166;4.474;2023-01-28T08:06:35;4.20;99.90
25933;DHT22;13731;51.166;4.474;2023-01-28T08:09:05;4.00;1.00
25933;DHT22;13731;51.166;4.474;2023-01-28T08:11:37;4.00;1.00
25933;DHT22;13731;51.166;4.474;2023-01-28T08:14:04;4.40;1.00
25933;DHT22;13731;51.166;4.474;2023-01-28T08:16:29;4.30;1.00
25933;DHT22;13731;51.166;4.474;2023-01-28T08:18:56;4.00;1.00
25933;DHT22;13731;51.166;4.474;2023-01-28T08:21:22;4.40;99.90
25933;DHT22;13731;51.166;4.474;2023-01-28T08:23:48;4.20;99.90
25933;DHT22;13731;51.166;4.474;2023-01-28T08:26:14;4.00;6.30
25933;DHT22;13731;51.166;4.474;2023-01-28T08:28:40;3.80;99.90
25933;DHT22;13731;51.166;4.474;2023-01-28T08:31:06;4.00;99.90
25933;DHT22;13731;51.166;4.474;2023-01-28T08:33:31;4.20;27.00
25933;DHT22;13731;51.166;4.474;2023-01-28T08:35:57;4.50;99.90
25933;DHT22;13731;51.166;4.474;2023-01-28T08:38:26;4.50;99.90
25933;DHT22;13731;51.166;4.474;2023-01-28T08:40:55;4.20;99.90
25933;DHT22;13731;51.166;4.474;2023-01-28T08:43:21;4.10;1.00
25933;DHT22;13731;51.166;4.474;2023-01-28T08:45:47;3.90;99.90
25933;DHT22;13731;51.166;4.474;2023-01-28T08:48:16;3.80;99.90
25933;DHT22;13731;51.166;4.474;2023-01-28T08:50:42;3.80;99.90
25933;DHT22;13731;51.166;4.474;2023-01-28T08:53:14;3.90;1.00
25933;DHT22;13731;51.166;4.474;2023-01-28T08:55:40;4.00;99.90
25933;DHT22;13731;51.166;4.474;2023-01-28T08:58:10;4.00;1.00
25933;DHT22;13731;51.166;4.474;2023-01-28T09:00:37;3.90;89.20
25933;DHT22;13731;51.166;4.474;2023-01-28T09:03:03;4.00;5.90
25933;DHT22;13731;51.166;4.474;2023-01-28T09:05:30;4.10;1.00
25933;DHT22;13731;51.166;4.474;2023-01-28T09:08:00;4.40;99.90
25933;DHT22;13731;51.166;4.474;2023-01-28T09:10:27;4.50;99.90
25933;DHT22;13731;51.166;4.474;2023-01-28T09:12:53;4.30;99.90
25933;DHT22;13731;51.166;4.474;2023-01-28T09:15:19;4.30;99.90
25933;DHT22;13731;51.166;4.474;2023-01-28T09:17:45;4.50;1.00
25933;DHT22;13731;51.166;4.474;2023-01-28T09:20:11;4.40;58.80
25933;DHT22;13731;51.166;4.474;2023-01-28T09:22:37;4.10;99.90
25933;DHT22;13731;51.166;4.474;2023-01-28T09:25:03;4.30;99.90
25933;DHT22;13731;51.166;4.474;2023-01-28T09:27:29;4.00;1.00
25933;DHT22;13731;51.166;4.474;2023-01-28T09:29:55;3.90;1.00
25933;DHT22;13731;51.166;4.474;2023-01-28T09:32:21;4.00;1.00
25933;DHT22;13731;51.166;4.474;2023-01-28T09:34:49;4.00;1.00
25933;DHT22;13731;51.166;4.474;2023-01-28T09:37:14;3.90;1.00
25933;DHT22;13731;51.166;4.474;2023-01-28T09:39:42;3.90;13.20
25933;DHT22;13731;51.166;4.474;2023-01-28T09:47:51;4.50;99.90
25933;DHT22;13731;51.166;4.474;2023-01-28T09:50:40;4.70;42.00
25933;DHT22;13731;51.166;4.474;2023-01-28T09:53:31;4.30;99.90
25933;DHT22;13731;51.166;4.474;2023-01-28T09:56:02;4.00;1.00
25933;DHT22;13731;51.166;4.474;2023-01-28T09:58:28;4.00;1.00
25933;DHT22;13731;51.166;4.474;2023-01-28T10:01:29;4.50;99.90
25933;DHT22;13731;51.166;4.474;2023-01-28T10:04:27;4.50;99.90
25933;DHT22;13731;51.166;4.474;2023-01-28T10:18:54;4.00;1.00
25933;DHT22;13731;51.166;4.474;2023-01-28T10:21:32;3.90;1.00
25933;DHT22;13731;51.166;4.474;2023-01-28T10:24:23;4.10;99.90
25933;DHT22;13731;51.166;4.474;2023-01-28T10:26:50;4.50;1.00
25933;DHT22;13731;51.166;4.474;2023-01-28T10:29:19;4.90;1.00
25933;DHT22;13731;51.166;4.474;2023-01-28T10:31:58;5.00;1.00
25933;DHT22;13731;51.166;4.474;2023-01-28T10:34:26;5.30;99.90
25933;DHT22;13731;51.166;4.474;2023-01-28T10:36:52;5.10;99.90
25933;DHT22;13731;51.166;4.474;2023-01-28T10:39:20;4.90;1.00
25933;DHT22;13731;51.166;4.474;2023-01-28T10:41:47;5.00;1.00
25933;DHT22;13731;51.166;4.474;2023-01-28T10:44:27;5.00;1.00
25933;DHT22;13731;51.166;4.474;2023-01-28T10:46:58;4.80;1.00
25933;DHT22;13731;51.166;4.474;2023-01-28T10:49:29;4.70;1.00
25933;DHT22;13731;51.166;4.474;2023-01-28T10:51:56;4.50;4.50
25933;DHT22;13731;51.166;4.474;2023-01-28T10:54:27;4.60;99.90
25933;DHT22;13731;51.166;4.474;2023-01-28T10:56:59;4.60;1.00
25933;DHT22;13731;51.166;4.474;2023-01-28T10:59:29;4.40;13.50
25933;DHT22;13731;51.166;4.474;2023-01-28T11:01:58;4.40;78.30
25933;DHT22;13731;51.166;4.474;2023-01-28T11:04:32;4.50;99.90
25933;DHT22;13731;51.166;4.474;2023-01-28T11:07:15;4.40;62.50
25933;DHT22;13731;51.166;4.474;2023-01-28T11:09:48;4.30;8.30
25933;DHT22;13731;51.166;4.474;2023-01-28T11:12:29;4.00;99.90
25933;DHT22;13731;51.166;4.474;2023-01-28T11:14:57;4.10;1.00
25933;DHT22;13731;51.166;4.474;2023-01-28T11:17:26;4.10;99.90
25933;DHT22;13731;51.166;4.474;2023-01-28T11:19:59;4.10;99.90
25933;DHT22;13731;51.166;4.474;2023-01-28T11:22:31;4.00;99.90
25933;DHT22;13731;51.166;4.474;2023-01-28T11:24:59;4.00;99.90
25933;DHT22;13731;51.166;4.474;2023-01-28T11:27:30;4.20;99.90
25933;DHT22;13731;51.166;4.474;2023-01-28T11:29:57;4.30;99.90
25933;DHT22;13731;51.166;4.474;2023-01-28T11:32:28;4.70;92.80
25933;DHT22;13731;51.166;4.474;2023-01-28T11:34:56;5.20;1.00
25933;DHT22;13731;51.166;4.474;2023-01-28T11:37:24;5.20;99.90
25933;DHT22;13731;51.166;4.474;2023-01-28T11:40:15;5.10;99.90
25933;DHT22;13731;51.166;4.474;2023-01-28T11:42:41;5.80;99.90
25933;DHT22;13731;51.166;4.474;2023-01-28T11:45:15;6.20;38.70
25933;DHT22;13731;51.166;4.474;2023-01-28T11:48:02;6.20;1.00
25933;DHT22;13731;51.166;4.474;2023-01-28T11:50:54;7.20;1.00
25933;DHT22;13731;51.166;4.474;2023-01-28T11:59:10;10.30;1.00
25933;DHT22;13731;51.166;4.474;2023-01-28T12:02:01;11.60;1.00
25933;DHT22;13731;51.166;4.474;2023-01-28T12:04:43;12.90;94.10
25933;DHT22;13731;51.166;4.474;2023-01-28T12:07:43;12.50;90.60
25933;DHT22;13731;51.166;4.474;2023-01-28T12:16:12;14.40;77.80
25933;DHT22;13731;51.166;4.474;2023-01-28T12:25:05;11.50;86.40
25933;DHT22;13731;51.166;4.474;2023-01-28T12:39:14;11.00;83.40
25933;DHT22;13731;51.166;4.474;2023-01-28T12:42:09;9.70;90.00
25933;DHT22;13731;51.166;4.474;2023-01-28T12:44:46;9.40;91.30
25933;DHT22;13731;51.166;4.474;2023-01-28T12:47:19;8.40;93.30
25933;DHT22;13731;51.166;4.474;2023-01-28T12:49:55;8.50;95.50
25933;DHT22;13731;51.166;4.474;2023-01-28T12:52:38;10.70;94.30
25933;DHT22;13731;51.166;4.474;2023-01-28T12:57:51;11.90;85.90
25933;DHT22;13731;51.166;4.474;2023-01-28T13:03:08;10.40;87.60
25933;DHT22;13731;51.166;4.474;2023-01-28T13:05:39;9.90;90.90
25933;DHT22;13731;51.166;4.474;2023-01-28T13:08:32;10.80;91.30
25933;DHT22;13731;51.166;4.474;2023-01-28T13:11:00;12.10;87.40
25933;DHT22;13731;51.166;4.474;2023-01-28T13:13:38;12.40;82.40
25933;DHT22;13731;51.166;4.474;2023-01-28T13:16:08;11.70;84.30
25933;DHT22;13731;51.166;4.474;2023-01-28T13:26:44;9.60;92.20
25933;DHT22;13731;51.166;4.474;2023-01-28T13:31:41;9.70;92.70
25933;DHT22;13731;51.166;4.474;2023-01-28T13:34:41;9.60;92.80
25933;DHT22;13731;51.166;4.474;2023-01-28T13:39:49;9.00;94.30
25933;DHT22;13731;51.166;4.474;2023-01-28T13:44:44;8.50;95.20
25933;DHT22;13731;51.166;4.474;2023-01-28T13:49:44;7.20;99.40
25933;DHT22;13731;51.166;4.474;2023-01-28T13:55:01;7.20;99.90
25933;DHT22;13731;51.166;4.474;2023-01-28T14:00:40;7.50;99.90
25933;DHT22;13731;51.166;4.474;2023-01-28T14:03:47;7.80;99.90
25933;DHT22;13731;51.166;4.474;2023-01-28T14:09:12;6.90;99.90
25933;DHT22;13731;51.166;4.474;2023-01-28T14:19:52;5.50;99.90
25933;DHT22;13731;51.166;4.474;2023-01-28T14:22:20;5.40;99.90
25933;DHT22;13731;51.166;4.474;2023-01-28T14:24:46;5.30;99.90
25933;DHT22;13731;51.166;4.474;2023-01-28T14:27:18;5.20;99.90
25933;DHT22;13731;51.166;4.474;2023-01-28T14:32:35;5.20;99.90
25933;DHT22;13731;51.166;4.474;2023-01-28T14:35:08;5.40;99.90
25933;DHT22;13731;51.166;4.474;2023-01-28T14:37:34;5.50;99.90
25933;DHT22;13731;51.166;4.474;2023-01-28T14:40:05;6.00;99.90
25933;DHT22;13731;51.166;4.474;2023-01-28T14:42:40;6.50;22.80
25933;DHT22;13731;51.166;4.474;2023-01-28T14:53:38;7.40;1.00
25933;DHT22;13731;51.166;4.474;2023-01-28T15:02:16;5.70;1.00
25933;DHT22;13731;51.166;4.474;2023-01-28T15:04:42;5.70;4.70
25933;DHT22;13731;51.166;4.474;2023-01-28T15:07:19;5.90;1.00
25933;DHT22;13731;51.166;4.474;2023-01-28T15:09:46;5.90;1.00
25933;DHT22;13731;51.166;4.474;2023-01-28T15:12:14;6.10;1.00
25933;DHT22;13731;51.166;4.474;2023-01-28T15:14:42;6.00;1.00
25933;DHT22;13731;51.166;4.474;2023-01-28T15:17:20;5.60;1.00
25933;DHT22;13731;51.166;4.474;2023-01-28T15:19:47;5.50;1.00
25933;DHT22;13731;51.166;4.474;2023-01-28T15:22:14;5.60;49.90
25933;DHT22;13731;51.166;4.474;2023-01-28T15:24:41;5.50;94.50
25933;DHT22;13731;51.166;4.474;2023-01-28T15:27:17;5.40;85.40
25933;DHT22;13731;51.166;4.474;2023-01-28T15:29:54;5.50;99.90
25933;DHT22;13731;51.166;4.474;2023-01-28T15:32:27;5.50;99.90
25933;DHT22;13731;51.166;4.474;2023-01-28T15:34:53;5.40;99.90
25933;DHT22;13731;51.166;4.474;2023-01-28T15:37:20;5.50;99.90
25933;DHT22;13731;51.166;4.474;2023-01-28T15:39:46;5.30;45.90
25933;DHT22;13731;51.166;4.474;2023-01-28T15:42:20;5.40;75.70
25933;DHT22;13731;51.166;4.474;2023-01-28T15:44:49;5.90;1.00
25933;DHT22;13731;51.166;4.474;2023-01-28T15:49:43;6.30;1.00
25933;DHT22;13731;51.166;4.474;2023-01-28T15:52:10;5.60;13.20
25933;DHT22;13731;51.166;4.474;2023-01-28T15:54:42;5.40;99.90
25933;DHT22;13731;51.166;4.474;2023-01-28T15:57:24;5.40;99.90
25933;DHT22;13731;51.166;4.474;2023-01-28T16:02:48;5.80;1.00
25933;DHT22;13731;51.166;4.474;2023-01-28T16:05:31;6.10;1.00
25933;DHT22;13731;51.166;4.474;2023-01-28T16:08:02;5.80;1.00
25933;DHT22;13731;51.166;4.474;2023-01-28T16:10:29;5.20;20.00
25933;DHT22;13731;51.166;4.474;2023-01-28T16:13:18;4.90;99.90
25933;DHT22;13731;51.166;4.474;2023-01-28T16:15:50;4.70;99.90
25933;DHT22;13731;51.166;4.474;2023-01-28T16:18:38;4.50;1.00
25933;DHT22;13731;51.166;4.474;2023-01-28T16:21:07;4.30;1.00
25933;DHT22;13731;51.166;4.474;2023-01-28T16:23:34;4.20;99.90
25933;DHT22;13731;51.166;4.474;2023-01-28T16:26:05;4.10;99.90
25933;DHT22;13731;51.166;4.474;2023-01-28T16:28:32;4.00;99.90
25933;DHT22;13731;51.166;4.474;2023-01-28T16:30:58;3.90;99.90
25933;DHT22;13731;51.166;4.474;2023-01-28T16:33:25;4.00;99.90
25933;DHT22;13731;51.166;4.474;2023-01-28T16:35:50;4.00;99.90
25933;DHT22;13731;51.166;4.474;2023-01-28T16:38:17;3.80;99.90
25933;DHT22;13731;51.166;4.474;2023-01-28T16:40:44;3.60;1.00
25933;DHT22;13731;51.166;4.474;2023-01-28T16:43:12;3.40;1.00
25933;DHT22;13731;51.166;4.474;2023-01-28T16:45:39;3.30;18.10
25933;DHT22;13731;51.166;4.474;2023-01-28T16:48:05;3.20;99.90
25933;DHT22;13731;51.166;4.474;2023-01-28T16:50:32;3.30;99.90
25933;DHT22;13731;51.166;4.474;2023-01-28T16:52:58;3.20;99.90
25933;DHT22;13731;51.166;4.474;2023-01-28T16:55:25;3.20;99.90
25933;DHT22;13731;51.166;4.474;2023-01-28T16:57:53;3.10;99.90
25933;DHT22;13731;51.166;4.474;2023-01-28T17:00:24;3.00;99.90
25933;DHT22;13731;51.166;4.474;2023-01-28T17:02:52;3.00;99.90
25933;DHT22;13731;51.166;4.474;2023-01-28T17:05:19;3.00;99.90
25933;DHT22;13731;51.166;4.474;2023-01-28T17:07:48;2.90;99.90
25933;DHT22;13731;51.166;4.474;2023-01-28T17:10:16;2.80;99.90
25933;DHT22;13731;51.166;4.474;2023-01-28T17:12:43;2.80;1.00
25933;DHT22;13731;51.166;4.474;2023-01-28T17:15:09;2.70;99.90
25933;DHT22;13731;51.166;4.474;2023-01-28T17:17:35;2.80;1.00
25933;DHT22;13731;51.166;4.474;2023-01-28T17:20:01;2.70;59.80
25933;DHT22;13731;51.166;4.474;2023-01-28T17:22:26;2.60;99.90
25933;DHT22;13731;51.166;4.474;2023-01-28T17:24:52;2.60;99.90
25933;DHT22;13731;51.166;4.474;2023-01-28T17:27:18;2.70;99.90
25933;DHT22;13731;51.166;4.474;2023-01-28T17:29:44;2.70;1.00
25933;DHT22;13731;51.166;4.474;2023-01-28T17:32:10;2.90;99.90
25933;DHT22;13731;51.166;4.474;2023-01-28T17:34:36;3.00;99.90
25933;DHT22;13731;51.166;4.474;2023-01-28T17:37:02;3.00;99.90
25933;DHT22;13731;51.166;4.474;2023-01-28T17:39:28;3.10;99.90
25933;DHT22;13731;51.166;4.474;2023-01-28T17:41:54;3.10;99.90
25933;DHT22;13731;51.166;4.474;2023-01-28T17:44:21;3.10;99.90
25933;DHT22;13731;51.166;4.474;2023-01-28T17:46:47;3.20;99.90
25933;DHT22;13731;51.166;4.474;2023-01-28T17:49:13;3.20;99.90
25933;DHT22;13731;51.166;4.474;2023-01-28T17:51:39;3.40;99.90
25933;DHT22;13731;51.166;4.474;2023-01-28T17:54:05;3.30;1.00
25933;DHT22;13731;51.166;4.474;2023-01-28T17:56:31;3.30;99.90
25933;DHT22;13731;51.166;4.474;2023-01-28T17:58:59;3.30;99.90
25933;DHT22;13731;51.166;4.474;2023-01-28T18:01:32;3.50;99.90
25933;DHT22;13731;51.166;4.474;2023-01-28T18:03:58;3.60;1.00
25933;DHT22;13731;51.166;4.474;2023-01-28T18:06:31;3.50;7.40
25933;DHT22;13731;51.166;4.474;2023-01-28T18:08:57;3.50;99.90
25933;DHT22;13731;51.166;4.474;2023-01-28T18:11:23;3.30;99.90
25933;DHT22;13731;51.166;4.474;2023-01-28T18:13:49;3.20;1.00
25933;DHT22;13731;51.166;4.474;2023-01-28T18:16:17;3.20;1.00
25933;DHT22;13731;51.166;4.474;2023-01-28T18:18:44;3.00;1.00
25933;DHT22;13731;51.166;4.474;2023-01-28T18:23:47;2.80;99.90
25933;DHT22;13731;51.166;4.474;2023-01-28T18:26:15;2.80;99.90
25933;DHT22;13731;51.166;4.474;2023-01-28T18:28:41;2.80;9.40